sensor_id;sensor_type;location;lat;lon;timestamp;P1;durP1;ratioP1;P2;durP2;ratioP2
24897;SDS011;12957;49.434;8.684;2022-08-03T00:01:00;1.90;;;1.80;;
24897;SDS011;12957;49.434;8.684;2022-08-03T00:03:25;1.63;;;1.55;;
24897;SDS011;12957;49.434;8.684;2022-08-03T00:05:51;1.40;;;1.40;;
24897;SDS011;12957;49.434;8.684;2022-08-03T00:08:17;7.65;;;1.70;;
24897;SDS011;12957;49.434;8.684;2022-08-03T00:10:42;1.77;;;1.67;;
24897;SDS011;12957;49.434;8.684;2022-08-03T00:13:08;1.70;;;1.60;;
24897;SDS011;12957;49.434;8.684;2022-08-03T00:15:35;2.00;;;1.80;;
24897;SDS011;12957;49.434;8.684;2022-08-03T00:18:00;2.13;;;2.03;;
24897;SDS011;12957;49.434;8.684;2022-08-03T00:20:26;2.25;;;1.48;;
24897;SDS011;12957;49.434;8.684;2022-08-03T00:22:52;1.48;;;1.38;;
24897;SDS011;12957;49.434;8.684;2022-08-03T00:25:17;1.70;;;1.60;;
24897;SDS011;12957;49.434;8.684;2022-08-03T00:27:43;1.60;;;1.50;;
24897;SDS011;12957;49.434;8.684;2022-08-03T00:30:09;2.65;;;1.60;;
24897;SDS011;12957;49.434;8.684;2022-08-03T00:32:34;1.70;;;1.60;;
24897;SDS011;12957;49.434;8.684;2022-08-03T00:35:00;1.73;;;1.60;;
24897;SDS011;12957;49.434;8.684;2022-08-03T00:37:25;2.47;;;1.83;;
24897;SDS011;12957;49.434;8.684;2022-08-03T00:39:51;1.70;;;1.60;;
24897;SDS011;12957;49.434;8.684;2022-08-03T00:42:16;1.55;;;1.45;;
24897;SDS011;12957;49.434;8.684;2022-08-03T00:44:42;1.60;;;1.58;;
24897;SDS011;12957;49.434;8.684;2022-08-03T00:47:08;1.70;;;1.60;;
24897;SDS011;12957;49.434;8.684;2022-08-03T00:49:40;1.77;;;1.67;;
24897;SDS011;12957;49.434;8.684;2022-08-03T00:52:07;1.63;;;1.52;;
24897;SDS011;12957;49.434;8.684;2022-08-03T00:54:33;1.55;;;1.55;;
24897;SDS011;12957;49.434;8.684;2022-08-03T00:57:00;1.48;;;1.40;;
24897;SDS011;12957;49.434;8.684;2022-08-03T00:59:26;1.70;;;1.50;;
24897;SDS011;12957;49.434;8.684;2022-08-03T01:01:52;1.85;;;1.75;;
24897;SDS011;12957;49.434;8.684;2022-08-03T01:04:17;1.60;;;1.50;;
24897;SDS011;12957;49.434;8.684;2022-08-03T01:09:37;1.77;;;1.67;;
24897;SDS011;12957;49.434;8.684;2022-08-03T01:12:12;2.28;;;1.73;;
24897;SDS011;12957;49.434;8.684;2022-08-03T01:15:02;3.47;;;1.52;;
24897;SDS011;12957;49.434;8.684;2022-08-03T01:17:38;1.90;;;1.80;;
24897;SDS011;12957;49.434;8.684;2022-08-03T01:20:08;1.58;;;1.48;;
24897;SDS011;12957;49.434;8.684;2022-08-03T01:28:42;1.95;;;1.85;;
24897;SDS011;12957;49.434;8.684;2022-08-03T01:31:20;1.77;;;1.70;;
24897;SDS011;12957;49.434;8.684;2022-08-03T01:33:52;1.92;;;1.70;;
24897;SDS011;12957;49.434;8.684;2022-08-03T01:36:22;1.92;;;1.50;;
24897;SDS011;12957;49.434;8.684;2022-08-03T01:38:53;1.70;;;1.60;;
24897;SDS011;12957;49.434;8.684;2022-08-03T01:41:20;1.95;;;1.85;;
24897;SDS011;12957;49.434;8.684;2022-08-03T01:43:48;5.60;;;1.70;;
24897;SDS011;12957;49.434;8.684;2022-08-03T01:46:15;2.58;;;1.52;;
24897;SDS011;12957;49.434;8.684;2022-08-03T01:48:42;2.03;;;1.92;;
24897;SDS011;12957;49.434;8.684;2022-08-03T01:51:09;1.45;;;1.45;;
24897;SDS011;12957;49.434;8.684;2022-08-03T01:53:35;1.60;;;1.58;;
24897;SDS011;12957;49.434;8.684;2022-08-03T01:56:02;2.38;;;1.73;;
24897;SDS011;12957;49.434;8.684;2022-08-03T01:58:28;1.98;;;1.83;;
24897;SDS011;12957;49.434;8.684;2022-08-03T02:00:54;1.50;;;1.50;;
24897;SDS011;12957;49.434;8.684;2022-08-03T02:03:23;1.83;;;1.73;;
24897;SDS011;12957;49.434;8.684;2022-08-03T02:05:48;2.63;;;1.90;;
24897;SDS011;12957;49.434;8.684;2022-08-03T02:08:14;1.92;;;1.70;;
24897;SDS011;12957;49.434;8.684;2022-08-03T02:10:44;1.77;;;1.70;;
24897;SDS011;12957;49.434;8.684;2022-08-03T02:13:10;1.85;;;1.70;;
24897;SDS011;12957;49.434;8.684;2022-08-03T02:15:37;1.95;;;1.70;;
24897;SDS011;12957;49.434;8.684;2022-08-03T02:18:04;1.88;;;1.77;;
24897;SDS011;12957;49.434;8.684;2022-08-03T02:20:30;1.63;;;1.55;;
24897;SDS011;12957;49.434;8.684;2022-08-03T02:22:57;2.35;;;1.48;;
24897;SDS011;12957;49.434;8.684;2022-08-03T02:25:22;3.10;;;1.77;;
24897;SDS011;12957;49.434;8.684;2022-08-03T02:27:50;1.65;;;1.58;;
24897;SDS011;12957;49.434;8.684;2022-08-03T02:30:19;1.83;;;1.73;;
24897;SDS011;12957;49.434;8.684;2022-08-03T02:32:47;2.72;;;1.75;;
24897;SDS011;12957;49.434;8.684;2022-08-03T02:35:16;1.80;;;1.70;;
24897;SDS011;12957;49.434;8.684;2022-08-03T02:37:45;1.90;;;1.80;;
24897;SDS011;12957;49.434;8.684;2022-08-03T02:40:14;1.60;;;1.50;;
24897;SDS011;12957;49.434;8.684;2022-08-03T02:42:42;1.85;;;1.77;;
24897;SDS011;12957;49.434;8.684;2022-08-03T02:45:10;1.80;;;1.70;;
24897;SDS011;12957;49.434;8.684;2022-08-03T02:47:40;2.78;;;1.90;;
24897;SDS011;12957;49.434;8.684;2022-08-03T02:50:08;2.30;;;1.80;;
24897;SDS011;12957;49.434;8.684;2022-08-03T02:52:35;3.28;;;1.95;;
24897;SDS011;12957;49.434;8.684;2022-08-03T02:55:01;4.43;;;1.80;;
24897;SDS011;12957;49.434;8.684;2022-08-03T02:57:29;2.10;;;2.00;;
24897;SDS011;12957;49.434;8.684;2022-08-03T02:59:56;1.58;;;1.58;;
24897;SDS011;12957;49.434;8.684;2022-08-03T03:02:22;2.58;;;2.17;;
24897;SDS011;12957;49.434;8.684;2022-08-03T03:04:49;2.38;;;1.60;;
24897;SDS011;12957;49.434;8.684;2022-08-03T03:07:15;3.45;;;1.80;;
24897;SDS011;12957;49.434;8.684;2022-08-03T03:09:42;1.85;;;1.75;;
24897;SDS011;12957;49.434;8.684;2022-08-03T03:12:07;2.05;;;1.95;;
24897;SDS011;12957;49.434;8.684;2022-08-03T03:14:34;3.45;;;1.90;;
24897;SDS011;12957;49.434;8.684;2022-08-03T03:17:00;2.00;;;1.90;;
24897;SDS011;12957;49.434;8.684;2022-08-03T03:19:26;3.00;;;1.70;;
24897;SDS011;12957;49.434;8.684;2022-08-03T03:21:52;2.97;;;1.88;;
24897;SDS011;12957;49.434;8.684;2022-08-03T03:24:19;1.88;;;1.77;;
24897;SDS011;12957;49.434;8.684;2022-08-03T03:26:44;1.83;;;1.73;;
24897;SDS011;12957;49.434;8.684;2022-08-03T03:29:10;2.00;;;1.90;;
24897;SDS011;12957;49.434;8.684;2022-08-03T03:31:36;2.17;;;1.75;;
24897;SDS011;12957;49.434;8.684;2022-08-03T03:34:01;1.60;;;1.60;;
24897;SDS011;12957;49.434;8.684;2022-08-03T03:36:28;2.13;;;1.77;;
24897;SDS011;12957;49.434;8.684;2022-08-03T03:38:53;1.90;;;1.80;;
24897;SDS011;12957;49.434;8.684;2022-08-03T03:41:19;2.63;;;1.80;;
24897;SDS011;12957;49.434;8.684;2022-08-03T03:43:44;1.95;;;1.85;;
24897;SDS011;12957;49.434;8.684;2022-08-03T03:46:13;7.22;;;2.10;;
24897;SDS011;12957;49.434;8.684;2022-08-03T03:48:38;1.95;;;1.85;;
24897;SDS011;12957;49.434;8.684;2022-08-03T03:51:04;2.15;;;1.95;;
24897;SDS011;12957;49.434;8.684;2022-08-03T03:53:30;2.72;;;1.60;;
24897;SDS011;12957;49.434;8.684;2022-08-03T03:55:55;3.15;;;1.83;;
24897;SDS011;12957;49.434;8.684;2022-08-03T03:58:21;2.47;;;1.95;;
24897;SDS011;12957;49.434;8.684;2022-08-03T04:00:46;1.90;;;1.80;;
24897;SDS011;12957;49.434;8.684;2022-08-03T04:03:12;2.97;;;1.92;;
24897;SDS011;12957;49.434;8.684;2022-08-03T04:05:37;1.75;;;1.65;;
24897;SDS011;12957;49.434;8.684;2022-08-03T04:08:22;2.00;;;1.90;;
24897;SDS011;12957;49.434;8.684;2022-08-03T04:11:15;2.10;;;1.90;;
24897;SDS011;12957;49.434;8.684;2022-08-03T04:14:00;2.05;;;1.95;;
24897;SDS011;12957;49.434;8.684;2022-08-03T04:16:33;1.88;;;1.77;;
24897;SDS011;12957;49.434;8.684;2022-08-03T04:19:04;2.13;;;1.95;;
24897;SDS011;12957;49.434;8.684;2022-08-03T04:21:32;2.65;;;1.95;;
24897;SDS011;12957;49.434;8.684;2022-08-03T04:24:01;2.83;;;2.08;;
24897;SDS011;12957;49.434;8.684;2022-08-03T04:26:28;3.80;;;1.98;;
24897;SDS011;12957;49.434;8.684;2022-08-03T04:28:56;2.28;;;2.17;;
24897;SDS011;12957;49.434;8.684;2022-08-03T04:31:22;3.25;;;2.25;;
24897;SDS011;12957;49.434;8.684;2022-08-03T04:33:49;5.78;;;1.92;;
24897;SDS011;12957;49.434;8.684;2022-08-03T04:36:16;2.20;;;2.10;;
24897;SDS011;12957;49.434;8.684;2022-08-03T04:39:04;2.05;;;1.95;;
24897;SDS011;12957;49.434;8.684;2022-08-03T04:41:32;3.92;;;2.47;;
24897;SDS011;12957;49.434;8.684;2022-08-03T04:43:59;2.30;;;1.80;;
24897;SDS011;12957;49.434;8.684;2022-08-03T04:46:26;3.90;;;2.28;;
24897;SDS011;12957;49.434;8.684;2022-08-03T04:48:52;1.80;;;1.70;;
24897;SDS011;12957;49.434;8.684;2022-08-03T04:51:20;2.97;;;1.90;;
24897;SDS011;12957;49.434;8.684;2022-08-03T04:53:46;2.13;;;2.00;;
24897;SDS011;12957;49.434;8.684;2022-08-03T04:56:11;2.30;;;2.10;;
24897;SDS011;12957;49.434;8.684;2022-08-03T04:58:37;1.95;;;1.85;;
24897;SDS011;12957;49.434;8.684;2022-08-03T05:01:02;2.00;;;1.90;;
24897;SDS011;12957;49.434;8.684;2022-08-03T05:03:28;2.05;;;1.95;;
24897;SDS011;12957;49.434;8.684;2022-08-03T05:05:53;2.17;;;1.90;;
24897;SDS011;12957;49.434;8.684;2022-08-03T05:08:19;3.17;;;2.08;;
24897;SDS011;12957;49.434;8.684;2022-08-03T05:10:45;1.90;;;1.80;;
24897;SDS011;12957;49.434;8.684;2022-08-03T05:13:10;1.85;;;1.80;;
24897;SDS011;12957;49.434;8.684;2022-08-03T05:15:37;3.08;;;1.90;;
24897;SDS011;12957;49.434;8.684;2022-08-03T05:18:03;6.38;;;1.90;;
24897;SDS011;12957;49.434;8.684;2022-08-03T05:20:28;1.95;;;1.85;;
24897;SDS011;12957;49.434;8.684;2022-08-03T05:22:55;2.25;;;2.08;;
24897;SDS011;12957;49.434;8.684;2022-08-03T05:25:21;2.55;;;1.80;;
24897;SDS011;12957;49.434;8.684;2022-08-03T05:27:46;4.88;;;1.88;;
24897;SDS011;12957;49.434;8.684;2022-08-03T05:30:12;2.00;;;1.80;;
24897;SDS011;12957;49.434;8.684;2022-08-03T05:32:37;1.65;;;1.60;;
24897;SDS011;12957;49.434;8.684;2022-08-03T05:35:03;3.83;;;1.65;;
24897;SDS011;12957;49.434;8.684;2022-08-03T05:37:28;2.90;;;1.58;;
24897;SDS011;12957;49.434;8.684;2022-08-03T05:39:54;1.85;;;1.67;;
24897;SDS011;12957;49.434;8.684;2022-08-03T05:42:19;1.40;;;1.33;;
24897;SDS011;12957;49.434;8.684;2022-08-03T05:44:45;3.95;;;1.30;;
24897;SDS011;12957;49.434;8.684;2022-08-03T05:47:10;1.50;;;1.40;;
24897;SDS011;12957;49.434;8.684;2022-08-03T05:49:36;1.50;;;1.40;;
24897;SDS011;12957;49.434;8.684;2022-08-03T05:52:02;1.50;;;1.40;;
24897;SDS011;12957;49.434;8.684;2022-08-03T05:54:27;1.40;;;1.30;;
24897;SDS011;12957;49.434;8.684;2022-08-03T05:56:53;3.22;;;1.50;;
24897;SDS011;12957;49.434;8.684;2022-08-03T05:59:18;1.30;;;1.30;;
24897;SDS011;12957;49.434;8.684;2022-08-03T06:01:44;2.53;;;1.50;;
24897;SDS011;12957;49.434;8.684;2022-08-03T06:04:09;1.40;;;1.30;;
24897;SDS011;12957;49.434;8.684;2022-08-03T06:06:35;2.13;;;1.38;;
24897;SDS011;12957;49.434;8.684;2022-08-03T06:09:00;1.50;;;1.40;;
24897;SDS011;12957;49.434;8.684;2022-08-03T06:11:26;1.65;;;1.55;;
24897;SDS011;12957;49.434;8.684;2022-08-03T06:13:51;1.50;;;1.40;;
24897;SDS011;12957;49.434;8.684;2022-08-03T06:16:17;11.40;;;1.55;;
24897;SDS011;12957;49.434;8.684;2022-08-03T06:18:42;1.60;;;1.50;;
24897;SDS011;12957;49.434;8.684;2022-08-03T06:21:08;1.60;;;1.50;;
24897;SDS011;12957;49.434;8.684;2022-08-03T06:23:34;1.83;;;1.50;;
24897;SDS011;12957;49.434;8.684;2022-08-03T06:26:00;3.13;;;1.70;;
24897;SDS011;12957;49.434;8.684;2022-08-03T06:28:25;1.90;;;1.80;;
24897;SDS011;12957;49.434;8.684;2022-08-03T06:30:51;1.90;;;1.80;;
24897;SDS011;12957;49.434;8.684;2022-08-03T06:33:16;3.75;;;1.60;;
24897;SDS011;12957;49.434;8.684;2022-08-03T06:35:42;2.08;;;1.95;;
24897;SDS011;12957;49.434;8.684;2022-08-03T06:38:08;4.00;;;1.80;;
24897;SDS011;12957;49.434;8.684;2022-08-03T06:40:34;5.03;;;1.98;;
24897;SDS011;12957;49.434;8.684;2022-08-03T06:43:03;5.47;;;2.10;;
24897;SDS011;12957;49.434;8.684;2022-08-03T06:45:29;2.35;;;2.00;;
24897;SDS011;12957;49.434;8.684;2022-08-03T06:48:02;4.30;;;2.15;;
24897;SDS011;12957;49.434;8.684;2022-08-03T06:50:29;6.78;;;2.40;;
24897;SDS011;12957;49.434;8.684;2022-08-03T06:52:54;6.75;;;2.22;;
24897;SDS011;12957;49.434;8.684;2022-08-03T06:55:20;5.28;;;2.20;;
24897;SDS011;12957;49.434;8.684;2022-08-03T06:57:45;6.60;;;2.22;;
24897;SDS011;12957;49.434;8.684;2022-08-03T07:00:11;3.58;;;2.25;;
24897;SDS011;12957;49.434;8.684;2022-08-03T07:02:37;3.92;;;2.15;;
24897;SDS011;12957;49.434;8.684;2022-08-03T07:05:04;3.25;;;2.40;;
24897;SDS011;12957;49.434;8.684;2022-08-03T07:07:29;2.63;;;2.20;;
24897;SDS011;12957;49.434;8.684;2022-08-03T07:09:55;3.95;;;2.40;;
24897;SDS011;12957;49.434;8.684;2022-08-03T07:12:20;7.32;;;2.67;;
24897;SDS011;12957;49.434;8.684;2022-08-03T07:14:46;4.32;;;2.20;;
24897;SDS011;12957;49.434;8.684;2022-08-03T07:17:11;5.18;;;2.33;;
24897;SDS011;12957;49.434;8.684;2022-08-03T07:19:37;8.23;;;2.90;;
24897;SDS011;12957;49.434;8.684;2022-08-03T07:22:02;7.30;;;2.60;;
24897;SDS011;12957;49.434;8.684;2022-08-03T07:24:28;5.50;;;2.50;;
24897;SDS011;12957;49.434;8.684;2022-08-03T07:26:54;5.63;;;2.40;;
24897;SDS011;12957;49.434;8.684;2022-08-03T07:29:19;5.57;;;2.42;;
24897;SDS011;12957;49.434;8.684;2022-08-03T07:31:45;8.80;;;3.00;;
24897;SDS011;12957;49.434;8.684;2022-08-03T07:34:10;8.45;;;2.33;;
24897;SDS011;12957;49.434;8.684;2022-08-03T07:36:36;8.88;;;2.78;;
24897;SDS011;12957;49.434;8.684;2022-08-03T07:39:02;8.60;;;2.42;;
24897;SDS011;12957;49.434;8.684;2022-08-03T07:41:28;4.43;;;2.72;;
24897;SDS011;12957;49.434;8.684;2022-08-03T07:43:53;9.73;;;2.60;;
24897;SDS011;12957;49.434;8.684;2022-08-03T07:46:19;7.82;;;2.72;;
24897;SDS011;12957;49.434;8.684;2022-08-03T07:48:44;7.63;;;2.70;;
24897;SDS011;12957;49.434;8.684;2022-08-03T07:51:10;6.55;;;3.03;;
24897;SDS011;12957;49.434;8.684;2022-08-03T07:53:35;3.20;;;2.38;;
24897;SDS011;12957;49.434;8.684;2022-08-03T07:56:01;9.00;;;2.40;;
24897;SDS011;12957;49.434;8.684;2022-08-03T07:58:26;9.07;;;2.30;;
24897;SDS011;12957;49.434;8.684;2022-08-03T08:00:52;9.40;;;2.67;;
24897;SDS011;12957;49.434;8.684;2022-08-03T08:03:18;5.57;;;2.83;;
24897;SDS011;12957;49.434;8.684;2022-08-03T08:05:43;10.18;;;2.50;;
24897;SDS011;12957;49.434;8.684;2022-08-03T08:08:09;6.10;;;2.70;;
24897;SDS011;12957;49.434;8.684;2022-08-03T08:10:35;6.47;;;2.45;;
24897;SDS011;12957;49.434;8.684;2022-08-03T08:13:01;4.88;;;2.35;;
24897;SDS011;12957;49.434;8.684;2022-08-03T08:15:27;16.23;;;3.80;;
24897;SDS011;12957;49.434;8.684;2022-08-03T08:17:53;3.30;;;2.15;;
24897;SDS011;12957;49.434;8.684;2022-08-03T08:20:21;10.23;;;2.33;;
24897;SDS011;12957;49.434;8.684;2022-08-03T08:22:47;6.95;;;2.28;;
24897;SDS011;12957;49.434;8.684;2022-08-03T08:25:13;3.83;;;1.92;;
24897;SDS011;12957;49.434;8.684;2022-08-03T08:27:46;8.40;;;2.30;;
24897;SDS011;12957;49.434;8.684;2022-08-03T08:30:12;3.47;;;2.30;;
24897;SDS011;12957;49.434;8.684;2022-08-03T08:32:39;6.40;;;2.25;;
24897;SDS011;12957;49.434;8.684;2022-08-03T08:35:05;4.35;;;2.38;;
24897;SDS011;12957;49.434;8.684;2022-08-03T08:37:31;3.45;;;2.00;;
24897;SDS011;12957;49.434;8.684;2022-08-03T08:39:56;5.68;;;2.50;;
24897;SDS011;12957;49.434;8.684;2022-08-03T08:42:22;3.60;;;2.00;;
24897;SDS011;12957;49.434;8.684;2022-08-03T08:44:48;5.28;;;2.20;;
24897;SDS011;12957;49.434;8.684;2022-08-03T08:47:13;5.63;;;2.30;;
24897;SDS011;12957;49.434;8.684;2022-08-03T08:49:39;5.50;;;1.95;;
24897;SDS011;12957;49.434;8.684;2022-08-03T08:52:06;5.85;;;2.15;;
24897;SDS011;12957;49.434;8.684;2022-08-03T08:54:32;6.95;;;2.15;;
24897;SDS011;12957;49.434;8.684;2022-08-03T08:57:01;2.90;;;1.90;;
24897;SDS011;12957;49.434;8.684;2022-08-03T08:59:27;6.50;;;2.20;;
24897;SDS011;12957;49.434;8.684;2022-08-03T09:01:56;6.28;;;2.10;;
24897;SDS011;12957;49.434;8.684;2022-08-03T09:04:22;4.55;;;2.17;;
24897;SDS011;12957;49.434;8.684;2022-08-03T09:06:48;9.45;;;2.08;;
24897;SDS011;12957;49.434;8.684;2022-08-03T09:09:14;4.68;;;2.10;;
24897;SDS011;12957;49.434;8.684;2022-08-03T09:11:42;4.43;;;2.00;;
24897;SDS011;12957;49.434;8.684;2022-08-03T09:14:11;3.10;;;1.95;;
24897;SDS011;12957;49.434;8.684;2022-08-03T09:16:36;7.97;;;2.80;;
24897;SDS011;12957;49.434;8.684;2022-08-03T09:19:12;3.72;;;2.15;;
24897;SDS011;12957;49.434;8.684;2022-08-03T09:21:38;4.85;;;2.15;;
24897;SDS011;12957;49.434;8.684;2022-08-03T09:24:04;4.03;;;2.00;;
24897;SDS011;12957;49.434;8.684;2022-08-03T09:26:31;4.68;;;2.08;;
24897;SDS011;12957;49.434;8.684;2022-08-03T09:29:01;6.20;;;2.25;;
24897;SDS011;12957;49.434;8.684;2022-08-03T09:31:37;8.50;;;2.70;;
24897;SDS011;12957;49.434;8.684;2022-08-03T09:34:07;5.25;;;2.05;;
24897;SDS011;12957;49.434;8.684;2022-08-03T09:36:35;2.08;;;1.83;;
24897;SDS011;12957;49.434;8.684;2022-08-03T09:39:06;5.30;;;2.75;;
24897;SDS011;12957;49.434;8.684;2022-08-03T09:41:36;6.45;;;2.28;;
24897;SDS011;12957;49.434;8.684;2022-08-03T09:44:02;2.10;;;2.00;;
24897;SDS011;12957;49.434;8.684;2022-08-03T09:46:28;1.75;;;1.65;;
24897;SDS011;12957;49.434;8.684;2022-08-03T09:49:11;4.28;;;1.90;;
24897;SDS011;12957;49.434;8.684;2022-08-03T09:51:36;7.65;;;2.33;;
24897;SDS011;12957;49.434;8.684;2022-08-03T09:54:02;4.07;;;1.83;;
24897;SDS011;12957;49.434;8.684;2022-08-03T09:56:38;7.50;;;1.95;;
24897;SDS011;12957;49.434;8.684;2022-08-03T09:59:04;3.80;;;1.60;;
24897;SDS011;12957;49.434;8.684;2022-08-03T10:01:33;1.73;;;1.63;;
24897;SDS011;12957;49.434;8.684;2022-08-03T10:03:59;5.03;;;1.70;;
24897;SDS011;12957;49.434;8.684;2022-08-03T10:06:24;4.68;;;1.95;;
24897;SDS011;12957;49.434;8.684;2022-08-03T10:11:36;3.40;;;1.60;;
24897;SDS011;12957;49.434;8.684;2022-08-03T10:14:05;4.10;;;1.63;;
24897;SDS011;12957;49.434;8.684;2022-08-03T10:16:32;1.60;;;1.60;;
24897;SDS011;12957;49.434;8.684;2022-08-03T10:18:59;3.00;;;1.90;;
24897;SDS011;12957;49.434;8.684;2022-08-03T10:21:25;1.55;;;1.50;;
24897;SDS011;12957;49.434;8.684;2022-08-03T10:23:57;2.55;;;1.70;;
24897;SDS011;12957;49.434;8.684;2022-08-03T10:26:24;3.38;;;1.50;;
24897;SDS011;12957;49.434;8.684;2022-08-03T10:28:50;1.60;;;1.50;;
24897;SDS011;12957;49.434;8.684;2022-08-03T10:31:17;1.80;;;1.70;;
24897;SDS011;12957;49.434;8.684;2022-08-03T10:33:46;2.47;;;1.70;;
24897;SDS011;12957;49.434;8.684;2022-08-03T10:36:14;2.25;;;1.65;;
24897;SDS011;12957;49.434;8.684;2022-08-03T10:38:43;1.80;;;1.70;;
24897;SDS011;12957;49.434;8.684;2022-08-03T10:41:18;1.55;;;1.48;;
24897;SDS011;12957;49.434;8.684;2022-08-03T10:43:45;1.70;;;1.60;;
24897;SDS011;12957;49.434;8.684;2022-08-03T10:46:16;2.75;;;1.45;;
24897;SDS011;12957;49.434;8.684;2022-08-03T10:48:44;2.50;;;1.55;;
24897;SDS011;12957;49.434;8.684;2022-08-03T10:51:10;3.95;;;1.73;;
24897;SDS011;12957;49.434;8.684;2022-08-03T10:53:40;1.40;;;1.40;;
24897;SDS011;12957;49.434;8.684;2022-08-03T10:59:19;2.58;;;1.80;;
24897;SDS011;12957;49.434;8.684;2022-08-03T11:02:09;1.80;;;1.70;;
24897;SDS011;12957;49.434;8.684;2022-08-03T11:04:36;1.90;;;1.80;;
24897;SDS011;12957;49.434;8.684;2022-08-03T11:07:20;2.55;;;1.70;;
24897;SDS011;12957;49.434;8.684;2022-08-03T11:09:47;1.80;;;1.70;;
24897;SDS011;12957;49.434;8.684;2022-08-03T11:12:21;2.30;;;1.40;;
24897;SDS011;12957;49.434;8.684;2022-08-03T11:14:55;1.73;;;1.63;;
24897;SDS011;12957;49.434;8.684;2022-08-03T11:17:21;1.50;;;1.40;;
24897;SDS011;12957;49.434;8.684;2022-08-03T11:19:48;1.65;;;1.52;;
24897;SDS011;12957;49.434;8.684;2022-08-03T11:22:14;4.57;;;1.80;;
24897;SDS011;12957;49.434;8.684;2022-08-03T11:29:55;1.90;;;1.80;;
24897;SDS011;12957;49.434;8.684;2022-08-03T11:40:31;2.65;;;1.73;;
24897;SDS011;12957;49.434;8.684;2022-08-03T11:43:01;1.63;;;1.52;;
24897;SDS011;12957;49.434;8.684;2022-08-03T11:45:28;5.85;;;1.95;;
24897;SDS011;12957;49.434;8.684;2022-08-03T11:47:54;1.90;;;1.70;;
24897;SDS011;12957;49.434;8.684;2022-08-03T11:50:20;3.33;;;1.80;;
24897;SDS011;12957;49.434;8.684;2022-08-03T11:52:46;1.63;;;1.52;;
24897;SDS011;12957;49.434;8.684;2022-08-03T11:55:14;1.70;;;1.60;;
24897;SDS011;12957;49.434;8.684;2022-08-03T11:57:42;6.45;;;1.85;;
24897;SDS011;12957;49.434;8.684;2022-08-03T12:00:20;1.48;;;1.45;;
24897;SDS011;12957;49.434;8.684;2022-08-03T12:02:54;2.08;;;1.52;;
24897;SDS011;12957;49.434;8.684;2022-08-03T12:05:46;1.77;;;1.67;;
24897;SDS011;12957;49.434;8.684;2022-08-03T12:10:50;1.50;;;1.40;;
24897;SDS011;12957;49.434;8.684;2022-08-03T12:13:16;2.65;;;1.60;;
24897;SDS011;12957;49.434;8.684;2022-08-03T12:15:42;1.63;;;1.52;;
24897;SDS011;12957;49.434;8.684;2022-08-03T12:18:12;1.80;;;1.70;;
24897;SDS011;12957;49.434;8.684;2022-08-03T12:20:39;5.10;;;1.70;;
24897;SDS011;12957;49.434;8.684;2022-08-03T12:23:05;2.47;;;1.60;;
24897;SDS011;12957;49.434;8.684;2022-08-03T12:25:31;3.17;;;1.73;;
24897;SDS011;12957;49.434;8.684;2022-08-03T12:28:19;5.13;;;1.83;;
24897;SDS011;12957;49.434;8.684;2022-08-03T12:30:48;1.70;;;1.60;;
24897;SDS011;12957;49.434;8.684;2022-08-03T12:33:15;1.52;;;1.52;;
24897;SDS011;12957;49.434;8.684;2022-08-03T12:35:45;1.80;;;1.70;;
24897;SDS011;12957;49.434;8.684;2022-08-03T12:38:11;1.80;;;1.70;;
24897;SDS011;12957;49.434;8.684;2022-08-03T12:40:37;1.77;;;1.67;;
24897;SDS011;12957;49.434;8.684;2022-08-03T12:43:11;4.10;;;2.00;;
24897;SDS011;12957;49.434;8.684;2022-08-03T12:45:37;1.50;;;1.50;;
24897;SDS011;12957;49.434;8.684;2022-08-03T12:48:02;1.95;;;1.45;;
24897;SDS011;12957;49.434;8.684;2022-08-03T12:50:33;3.10;;;1.67;;
24897;SDS011;12957;49.434;8.684;2022-08-03T12:53:00;1.98;;;1.48;;
24897;SDS011;12957;49.434;8.684;2022-08-03T12:55:28;3.50;;;1.80;;
24897;SDS011;12957;49.434;8.684;2022-08-03T12:58:05;4.13;;;2.20;;
24897;SDS011;12957;49.434;8.684;2022-08-03T13:00:31;2.10;;;1.90;;
24897;SDS011;12957;49.434;8.684;2022-08-03T13:03:01;2.35;;;1.83;;
24897;SDS011;12957;49.434;8.684;2022-08-03T13:05:28;1.70;;;1.60;;
24897;SDS011;12957;49.434;8.684;2022-08-03T13:07:54;1.80;;;1.70;;
24897;SDS011;12957;49.434;8.684;2022-08-03T13:10:30;2.92;;;2.10;;
24897;SDS011;12957;49.434;8.684;2022-08-03T13:12:57;2.72;;;1.65;;
24897;SDS011;12957;49.434;8.684;2022-08-03T13:15:24;1.58;;;1.50;;
24897;SDS011;12957;49.434;8.684;2022-08-03T13:17:52;1.50;;;1.50;;
24897;SDS011;12957;49.434;8.684;2022-08-03T13:20:18;2.33;;;1.60;;
24897;SDS011;12957;49.434;8.684;2022-08-03T13:22:45;4.15;;;1.95;;
24897;SDS011;12957;49.434;8.684;2022-08-03T13:25:11;1.80;;;1.70;;
24897;SDS011;12957;49.434;8.684;2022-08-03T13:27:36;2.33;;;1.83;;
24897;SDS011;12957;49.434;8.684;2022-08-03T13:30:02;3.33;;;1.70;;
24897;SDS011;12957;49.434;8.684;2022-08-03T13:32:28;1.88;;;1.77;;
24897;SDS011;12957;49.434;8.684;2022-08-03T13:34:54;4.10;;;1.70;;
24897;SDS011;12957;49.434;8.684;2022-08-03T13:37:19;1.85;;;1.75;;
24897;SDS011;12957;49.434;8.684;2022-08-03T13:39:45;4.88;;;1.80;;
24897;SDS011;12957;49.434;8.684;2022-08-03T13:42:10;3.03;;;1.70;;
24897;SDS011;12957;49.434;8.684;2022-08-03T13:44:36;1.60;;;1.50;;
24897;SDS011;12957;49.434;8.684;2022-08-03T13:47:02;2.47;;;2.28;;
24897;SDS011;12957;49.434;8.684;2022-08-03T13:49:28;5.72;;;1.90;;
24897;SDS011;12957;49.434;8.684;2022-08-03T13:51:54;1.73;;;1.63;;
24897;SDS011;12957;49.434;8.684;2022-08-03T13:54:20;1.70;;;1.60;;
24897;SDS011;12957;49.434;8.684;2022-08-03T13:56:46;1.70;;;1.60;;
24897;SDS011;12957;49.434;8.684;2022-08-03T13:59:23;2.83;;;1.52;;
24897;SDS011;12957;49.434;8.684;2022-08-03T14:01:49;3.25;;;1.35;;
24897;SDS011;12957;49.434;8.684;2022-08-03T14:04:15;2.03;;;1.90;;
24897;SDS011;12957;49.434;8.684;2022-08-03T14:06:41;3.78;;;1.60;;
24897;SDS011;12957;49.434;8.684;2022-08-03T14:09:09;1.73;;;1.63;;
24897;SDS011;12957;49.434;8.684;2022-08-03T14:11:34;2.63;;;1.65;;
24897;SDS011;12957;49.434;8.684;2022-08-03T14:14:00;2.03;;;1.92;;
24897;SDS011;12957;49.434;8.684;2022-08-03T14:16:25;2.75;;;1.70;;
24897;SDS011;12957;49.434;8.684;2022-08-03T14:18:51;1.60;;;1.50;;
24897;SDS011;12957;49.434;8.684;2022-08-03T14:21:16;3.65;;;1.90;;
24897;SDS011;12957;49.434;8.684;2022-08-03T14:23:42;3.08;;;1.80;;
24897;SDS011;12957;49.434;8.684;2022-08-03T14:26:08;1.75;;;1.50;;
24897;SDS011;12957;49.434;8.684;2022-08-03T14:28:33;6.75;;;1.85;;
24897;SDS011;12957;49.434;8.684;2022-08-03T14:30:59;6.75;;;1.92;;
24897;SDS011;12957;49.434;8.684;2022-08-03T14:33:25;3.92;;;1.60;;
24897;SDS011;12957;49.434;8.684;2022-08-03T14:35:52;1.60;;;1.50;;
24897;SDS011;12957;49.434;8.684;2022-08-03T14:38:18;5.05;;;1.70;;
24897;SDS011;12957;49.434;8.684;2022-08-03T14:40:44;1.90;;;1.80;;
24897;SDS011;12957;49.434;8.684;2022-08-03T14:43:10;5.55;;;1.65;;
24897;SDS011;12957;49.434;8.684;2022-08-03T14:45:35;1.77;;;1.67;;
24897;SDS011;12957;49.434;8.684;2022-08-03T14:48:01;1.50;;;1.50;;
24897;SDS011;12957;49.434;8.684;2022-08-03T14:50:28;2.92;;;1.75;;
24897;SDS011;12957;49.434;8.684;2022-08-03T14:52:53;1.73;;;1.50;;
24897;SDS011;12957;49.434;8.684;2022-08-03T14:55:19;1.27;;;1.27;;
24897;SDS011;12957;49.434;8.684;2022-08-03T14:57:44;1.98;;;1.67;;
24897;SDS011;12957;49.434;8.684;2022-08-03T15:00:10;4.97;;;1.40;;
24897;SDS011;12957;49.434;8.684;2022-08-03T15:02:36;1.60;;;1.50;;
24897;SDS011;12957;49.434;8.684;2022-08-03T15:05:01;2.15;;;1.85;;
24897;SDS011;12957;49.434;8.684;2022-08-03T15:07:27;1.80;;;1.70;;
24897;SDS011;12957;49.434;8.684;2022-08-03T15:09:52;1.40;;;1.40;;
24897;SDS011;12957;49.434;8.684;2022-08-03T15:12:18;1.80;;;1.70;;
24897;SDS011;12957;49.434;8.684;2022-08-03T15:14:43;1.70;;;1.60;;
24897;SDS011;12957;49.434;8.684;2022-08-03T15:17:09;5.63;;;1.55;;
24897;SDS011;12957;49.434;8.684;2022-08-03T15:19:34;1.40;;;1.40;;